sensor_id;sensor_type;location;lat;lon;timestamp;temperature;humidity
12811;DHT22;6470;47.654;7.896;2022-08-11T00:00:01;22.40;83.80
12811;DHT22;6470;47.654;7.896;2022-08-11T00:02:42;22.10;83.30
12811;DHT22;6470;47.654;7.896;2022-08-11T00:05:19;21.50;83.50
12811;DHT22;6470;47.654;7.896;2022-08-11T00:07:51;22.00;83.50
12811;DHT22;6470;47.654;7.896;2022-08-11T00:10:20;21.70;83.70
12811;DHT22;6470;47.654;7.896;2022-08-11T00:13:13;22.00;83.60
12811;DHT22;6470;47.654;7.896;2022-08-11T00:15:43;22.10;84.10
12811;DHT22;6470;47.654;7.896;2022-08-11T00:18:11;21.40;83.40
12811;DHT22;6470;47.654;7.896;2022-08-11T00:20:40;21.20;83.30
12811;DHT22;6470;47.654;7.896;2022-08-11T00:23:09;21.50;83.70
12811;DHT22;6470;47.654;7.896;2022-08-11T00:25:48;22.10;84.20
12811;DHT22;6470;47.654;7.896;2022-08-11T00:28:26;21.90;83.70
12811;DHT22;6470;47.654;7.896;2022-08-11T00:30:54;22.40;85.00
12811;DHT22;6470;47.654;7.896;2022-08-11T00:33:23;21.90;85.20
12811;DHT22;6470;47.654;7.896;2022-08-11T00:35:50;21.20;84.10
12811;DHT22;6470;47.654;7.896;2022-08-11T00:38:24;21.80;84.20
12811;DHT22;6470;47.654;7.896;2022-08-11T00:47:01;21.30;85.00
12811;DHT22;6470;47.654;7.896;2022-08-11T01:00:20;22.20;86.90
12811;DHT22;6470;47.654;7.896;2022-08-11T01:16:32;21.30;88.40
12811;DHT22;6470;47.654;7.896;2022-08-11T01:41:48;21.40;90.30
12811;DHT22;6470;47.654;7.896;2022-08-11T01:47:39;21.20;90.40
12811;DHT22;6470;47.654;7.896;2022-08-11T01:59:20;20.90;90.60
12811;DHT22;6470;47.654;7.896;2022-08-11T02:02:01;21.30;90.60
12811;DHT22;6470;47.654;7.896;2022-08-11T02:13:11;21.20;90.90
12811;DHT22;6470;47.654;7.896;2022-08-11T02:15:47;21.10;91.10
12811;DHT22;6470;47.654;7.896;2022-08-11T02:18:23;21.10;91.00
12811;DHT22;6470;47.654;7.896;2022-08-11T02:21:12;20.40;91.00
12811;DHT22;6470;47.654;7.896;2022-08-11T02:24:03;21.30;91.40
12811;DHT22;6470;47.654;7.896;2022-08-11T02:26:49;21.00;91.20
12811;DHT22;6470;47.654;7.896;2022-08-11T02:29:28;21.00;91.20
12811;DHT22;6470;47.654;7.896;2022-08-11T02:35:28;21.20;91.50
12811;DHT22;6470;47.654;7.896;2022-08-11T02:38:16;21.00;91.30
12811;DHT22;6470;47.654;7.896;2022-08-11T02:41:09;21.00;91.30
12811;DHT22;6470;47.654;7.896;2022-08-11T02:44:12;21.40;91.60
12811;DHT22;6470;47.654;7.896;2022-08-11T02:46:49;20.90;91.40
12811;DHT22;6470;47.654;7.896;2022-08-11T02:49:47;20.80;91.50
12811;DHT22;6470;47.654;7.896;2022-08-11T02:55:32;21.00;91.70
12811;DHT22;6470;47.654;7.896;2022-08-11T02:58:30;20.30;91.60
12811;DHT22;6470;47.654;7.896;2022-08-11T03:04:04;20.60;91.50
12811;DHT22;6470;47.654;7.896;2022-08-11T03:12:16;20.80;91.60
12811;DHT22;6470;47.654;7.896;2022-08-11T03:15:09;20.50;91.60
12811;DHT22;6470;47.654;7.896;2022-08-11T03:21:23;20.50;91.60
12811;DHT22;6470;47.654;7.896;2022-08-11T03:24:00;20.60;91.60
12811;DHT22;6470;47.654;7.896;2022-08-11T03:26:32;20.70;91.50
12811;DHT22;6470;47.654;7.896;2022-08-11T03:29:19;20.90;91.60
12811;DHT22;6470;47.654;7.896;2022-08-11T03:34:28;20.70;91.50
12811;DHT22;6470;47.654;7.896;2022-08-11T04:04:57;19.80;92.00
12811;DHT22;6470;47.654;7.896;2022-08-11T04:30:22;20.40;92.40
12811;DHT22;6470;47.654;7.896;2022-08-11T04:54:10;20.50;93.60
12811;DHT22;6470;47.654;7.896;2022-08-11T04:58:10;19.90;93.30
12811;DHT22;6470;47.654;7.896;2022-08-11T05:06:51;20.10;93.60
12811;DHT22;6470;47.654;7.896;2022-08-11T05:09:33;19.90;93.80
12811;DHT22;6470;47.654;7.896;2022-08-11T05:14:38;19.80;94.00
12811;DHT22;6470;47.654;7.896;2022-08-11T05:20:20;20.50;94.50
12811;DHT22;6470;47.654;7.896;2022-08-11T05:23:08;20.10;95.00
12811;DHT22;6470;47.654;7.896;2022-08-11T05:26:13;19.60;94.80
12811;DHT22;6470;47.654;7.896;2022-08-11T05:29:01;19.20;95.30
12811;DHT22;6470;47.654;7.896;2022-08-11T05:31:56;20.00;95.80
12811;DHT22;6470;47.654;7.896;2022-08-11T05:34:51;19.90;95.80
12811;DHT22;6470;47.654;7.896;2022-08-11T05:40:11;19.80;96.00
12811;DHT22;6470;47.654;7.896;2022-08-11T05:43:01;20.20;96.40
12811;DHT22;6470;47.654;7.896;2022-08-11T05:46:00;19.90;96.20
12811;DHT22;6470;47.654;7.896;2022-08-11T05:48:45;20.10;96.40
12811;DHT22;6470;47.654;7.896;2022-08-11T05:51:38;19.90;96.20
12811;DHT22;6470;47.654;7.896;2022-08-11T05:54:26;20.10;96.40
12811;DHT22;6470;47.654;7.896;2022-08-11T05:57:22;20.20;96.70
12811;DHT22;6470;47.654;7.896;2022-08-11T05:59:58;20.30;96.30
12811;DHT22;6470;47.654;7.896;2022-08-11T06:02:26;20.60;96.60
12811;DHT22;6470;47.654;7.896;2022-08-11T06:04:59;20.30;96.40
12811;DHT22;6470;47.654;7.896;2022-08-11T06:07:30;20.60;96.80
12811;DHT22;6470;47.654;7.896;2022-08-11T06:09:58;20.70;96.60
12811;DHT22;6470;47.654;7.896;2022-08-11T06:12:27;20.90;96.20
12811;DHT22;6470;47.654;7.896;2022-08-11T06:15:02;20.40;96.20
12811;DHT22;6470;47.654;7.896;2022-08-11T06:17:30;20.80;96.30
12811;DHT22;6470;47.654;7.896;2022-08-11T06:20:03;20.90;95.80
12811;DHT22;6470;47.654;7.896;2022-08-11T06:22:31;20.90;96.10
12811;DHT22;6470;47.654;7.896;2022-08-11T06:24:59;20.00;95.90
12811;DHT22;6470;47.654;7.896;2022-08-11T06:27:32;21.10;96.00
12811;DHT22;6470;47.654;7.896;2022-08-11T06:30:00;21.10;96.40
12811;DHT22;6470;47.654;7.896;2022-08-11T06:32:30;21.50;96.30
12811;DHT22;6470;47.654;7.896;2022-08-11T06:38:09;21.30;96.80
12811;DHT22;6470;47.654;7.896;2022-08-11T06:40:52;21.70;95.90
12811;DHT22;6470;47.654;7.896;2022-08-11T06:46:43;22.60;95.20
12811;DHT22;6470;47.654;7.896;2022-08-11T06:49:12;23.00;95.80
12811;DHT22;6470;47.654;7.896;2022-08-11T06:52:10;22.00;95.00
12811;DHT22;6470;47.654;7.896;2022-08-11T06:54:51;22.40;95.10
12811;DHT22;6470;47.654;7.896;2022-08-11T06:57:21;22.50;95.50
12811;DHT22;6470;47.654;7.896;2022-08-11T07:00:07;22.20;95.30
12811;DHT22;6470;47.654;7.896;2022-08-11T07:03:01;22.60;95.40
12811;DHT22;6470;47.654;7.896;2022-08-11T07:12:16;23.00;95.10
12811;DHT22;6470;47.654;7.896;2022-08-11T07:15:01;23.20;94.90
12811;DHT22;6470;47.654;7.896;2022-08-11T07:17:50;23.30;95.20
12811;DHT22;6470;47.654;7.896;2022-08-11T07:20:38;23.60;94.30
12811;DHT22;6470;47.654;7.896;2022-08-11T07:23:23;24.50;94.90
12811;DHT22;6470;47.654;7.896;2022-08-11T07:26:08;23.90;94.50
12811;DHT22;6470;47.654;7.896;2022-08-11T07:28:54;23.90;94.40
12811;DHT22;6470;47.654;7.896;2022-08-11T07:34:24;24.90;94.10
12811;DHT22;6470;47.654;7.896;2022-08-11T07:36:58;23.90;93.10
12811;DHT22;6470;47.654;7.896;2022-08-11T07:39:32;23.90;92.80
12811;DHT22;6470;47.654;7.896;2022-08-11T07:41:59;22.00;92.80
12811;DHT22;6470;47.654;7.896;2022-08-11T07:44:29;24.80;93.60
12811;DHT22;6470;47.654;7.896;2022-08-11T07:46:56;25.20;92.60
12811;DHT22;6470;47.654;7.896;2022-08-11T07:49:44;25.40;92.20
12811;DHT22;6470;47.654;7.896;2022-08-11T07:52:32;25.20;92.00
12811;DHT22;6470;47.654;7.896;2022-08-11T07:55:05;25.10;91.70
12811;DHT22;6470;47.654;7.896;2022-08-11T07:57:33;26.10;91.60
12811;DHT22;6470;47.654;7.896;2022-08-11T08:00:18;25.10;91.00
12811;DHT22;6470;47.654;7.896;2022-08-11T08:03:04;26.10;91.40
12811;DHT22;6470;47.654;7.896;2022-08-11T08:05:49;26.10;91.70
12811;DHT22;6470;47.654;7.896;2022-08-11T08:08:35;26.00;90.30
12811;DHT22;6470;47.654;7.896;2022-08-11T08:11:22;25.70;90.30
12811;DHT22;6470;47.654;7.896;2022-08-11T08:14:07;25.70;90.30
12811;DHT22;6470;47.654;7.896;2022-08-11T08:16:51;26.00;90.40
12811;DHT22;6470;47.654;7.896;2022-08-11T08:19:36;25.90;90.50
12811;DHT22;6470;47.654;7.896;2022-08-11T08:22:03;25.80;90.00
12811;DHT22;6470;47.654;7.896;2022-08-11T08:24:29;26.30;90.30
12811;DHT22;6470;47.654;7.896;2022-08-11T08:26:56;26.30;90.50
12811;DHT22;6470;47.654;7.896;2022-08-11T08:29:26;26.60;89.30
12811;DHT22;6470;47.654;7.896;2022-08-11T08:32:12;27.30;90.20
12811;DHT22;6470;47.654;7.896;2022-08-11T08:34:39;27.30;89.90
12811;DHT22;6470;47.654;7.896;2022-08-11T08:37:08;26.90;89.70
12811;DHT22;6470;47.654;7.896;2022-08-11T08:39:34;26.80;88.20
12811;DHT22;6470;47.654;7.896;2022-08-11T08:42:05;26.90;88.70
12811;DHT22;6470;47.654;7.896;2022-08-11T08:44:35;26.90;87.90
12811;DHT22;6470;47.654;7.896;2022-08-11T08:47:04;27.00;87.30
12811;DHT22;6470;47.654;7.896;2022-08-11T08:49:36;27.20;87.00
12811;DHT22;6470;47.654;7.896;2022-08-11T08:52:04;27.20;87.40
12811;DHT22;6470;47.654;7.896;2022-08-11T08:54:36;26.90;85.80
12811;DHT22;6470;47.654;7.896;2022-08-11T08:57:06;28.10;85.60
12811;DHT22;6470;47.654;7.896;2022-08-11T08:59:39;26.80;84.50
12811;DHT22;6470;47.654;7.896;2022-08-11T09:02:07;27.40;86.90
12811;DHT22;6470;47.654;7.896;2022-08-11T09:04:38;27.60;86.70
12811;DHT22;6470;47.654;7.896;2022-08-11T09:07:16;28.00;85.70
12811;DHT22;6470;47.654;7.896;2022-08-11T09:09:46;28.00;85.30
12811;DHT22;6470;47.654;7.896;2022-08-11T09:12:13;27.90;85.10
12811;DHT22;6470;47.654;7.896;2022-08-11T09:14:41;28.10;85.80
12811;DHT22;6470;47.654;7.896;2022-08-11T09:17:50;29.20;83.30
12811;DHT22;6470;47.654;7.896;2022-08-11T09:20:18;28.70;83.30
12811;DHT22;6470;47.654;7.896;2022-08-11T09:22:44;29.40;82.00
12811;DHT22;6470;47.654;7.896;2022-08-11T09:25:38;28.60;82.50
12811;DHT22;6470;47.654;7.896;2022-08-11T09:30:57;28.90;84.40
12811;DHT22;6470;47.654;7.896;2022-08-11T09:33:27;28.10;84.00
12811;DHT22;6470;47.654;7.896;2022-08-11T09:38:22;28.00;83.10
12811;DHT22;6470;47.654;7.896;2022-08-11T09:41:08;28.90;84.30
12811;DHT22;6470;47.654;7.896;2022-08-11T09:43:44;28.20;83.20
12811;DHT22;6470;47.654;7.896;2022-08-11T09:46:30;29.00;83.00
12811;DHT22;6470;47.654;7.896;2022-08-11T09:48:59;28.60;83.40
12811;DHT22;6470;47.654;7.896;2022-08-11T09:51:29;28.40;82.50
12811;DHT22;6470;47.654;7.896;2022-08-11T09:53:56;29.90;83.00
12811;DHT22;6470;47.654;7.896;2022-08-11T09:56:24;30.00;81.90
12811;DHT22;6470;47.654;7.896;2022-08-11T09:59:08;29.10;81.20
12811;DHT22;6470;47.654;7.896;2022-08-11T10:01:48;28.80;81.30
12811;DHT22;6470;47.654;7.896;2022-08-11T10:04:23;28.90;81.70
12811;DHT22;6470;47.654;7.896;2022-08-11T10:06:54;28.90;81.10
12811;DHT22;6470;47.654;7.896;2022-08-11T10:09:41;29.30;81.80
12811;DHT22;6470;47.654;7.896;2022-08-11T10:12:31;29.00;79.50
12811;DHT22;6470;47.654;7.896;2022-08-11T10:15:11;29.70;79.80
12811;DHT22;6470;47.654;7.896;2022-08-11T10:18:09;29.60;79.90
12811;DHT22;6470;47.654;7.896;2022-08-11T10:20:59;29.90;80.30
12811;DHT22;6470;47.654;7.896;2022-08-11T10:23:33;29.90;79.20
12811;DHT22;6470;47.654;7.896;2022-08-11T10:26:20;30.30;78.60
12811;DHT22;6470;47.654;7.896;2022-08-11T10:29:05;30.30;79.40
12811;DHT22;6470;47.654;7.896;2022-08-11T10:31:57;30.70;78.10
12811;DHT22;6470;47.654;7.896;2022-08-11T10:34:46;30.40;78.60
12811;DHT22;6470;47.654;7.896;2022-08-11T10:37:13;30.60;77.50
12811;DHT22;6470;47.654;7.896;2022-08-11T10:39:40;30.80;78.00
12811;DHT22;6470;47.654;7.896;2022-08-11T10:42:08;31.00;76.50
12811;DHT22;6470;47.654;7.896;2022-08-11T10:44:54;30.70;76.40
12811;DHT22;6470;47.654;7.896;2022-08-11T10:47:22;30.40;76.30
12811;DHT22;6470;47.654;7.896;2022-08-11T10:50:07;30.80;77.40
12811;DHT22;6470;47.654;7.896;2022-08-11T10:52:52;31.00;75.50
12811;DHT22;6470;47.654;7.896;2022-08-11T10:55:38;30.80;76.30
12811;DHT22;6470;47.654;7.896;2022-08-11T10:58:25;30.80;75.40
12811;DHT22;6470;47.654;7.896;2022-08-11T11:01:09;30.80;75.60
12811;DHT22;6470;47.654;7.896;2022-08-11T11:03:36;31.10;76.50
12811;DHT22;6470;47.654;7.896;2022-08-11T11:06:24;30.40;77.00
12811;DHT22;6470;47.654;7.896;2022-08-11T11:09:10;32.20;75.70
12811;DHT22;6470;47.654;7.896;2022-08-11T11:11:38;30.90;75.00
12811;DHT22;6470;47.654;7.896;2022-08-11T11:14:29;30.90;74.60
12811;DHT22;6470;47.654;7.896;2022-08-11T11:17:14;31.60;74.70
12811;DHT22;6470;47.654;7.896;2022-08-11T11:19:57;31.00;74.10
12811;DHT22;6470;47.654;7.896;2022-08-11T11:22:27;31.00;74.10
12811;DHT22;6470;47.654;7.896;2022-08-11T11:30:13;31.70;74.60
12811;DHT22;6470;47.654;7.896;2022-08-11T11:35:35;31.80;76.80
12811;DHT22;6470;47.654;7.896;2022-08-11T11:38:06;32.40;74.80
12811;DHT22;6470;47.654;7.896;2022-08-11T11:40:34;32.00;74.60
12811;DHT22;6470;47.654;7.896;2022-08-11T11:43:02;32.10;74.60
12811;DHT22;6470;47.654;7.896;2022-08-11T11:45:28;32.20;76.10
12811;DHT22;6470;47.654;7.896;2022-08-11T11:47:56;31.90;73.50
12811;DHT22;6470;47.654;7.896;2022-08-11T11:50:32;31.90;73.60
12811;DHT22;6470;47.654;7.896;2022-08-11T11:53:05;31.40;72.80
12811;DHT22;6470;47.654;7.896;2022-08-11T11:55:31;31.70;72.30
12811;DHT22;6470;47.654;7.896;2022-08-11T11:57:59;32.30;73.70
12811;DHT22;6470;47.654;7.896;2022-08-11T12:00:44;31.70;73.60
12811;DHT22;6470;47.654;7.896;2022-08-11T12:03:29;31.50;75.20
12811;DHT22;6470;47.654;7.896;2022-08-11T12:05:56;31.40;75.70
12811;DHT22;6470;47.654;7.896;2022-08-11T12:08:23;31.60;75.20
12811;DHT22;6470;47.654;7.896;2022-08-11T12:10:50;32.00;74.10
12811;DHT22;6470;47.654;7.896;2022-08-11T12:13:41;32.70;74.80
12811;DHT22;6470;47.654;7.896;2022-08-11T12:16:12;32.20;74.10
12811;DHT22;6470;47.654;7.896;2022-08-11T12:18:40;32.00;75.30
12811;DHT22;6470;47.654;7.896;2022-08-11T12:21:08;32.80;74.80
12811;DHT22;6470;47.654;7.896;2022-08-11T12:23:36;32.20;73.90
12811;DHT22;6470;47.654;7.896;2022-08-11T12:26:21;32.00;74.40
12811;DHT22;6470;47.654;7.896;2022-08-11T12:29:09;32.10;73.10
12811;DHT22;6470;47.654;7.896;2022-08-11T12:31:38;32.20;73.70
12811;DHT22;6470;47.654;7.896;2022-08-11T12:34:07;32.20;73.40
12811;DHT22;6470;47.654;7.896;2022-08-11T12:36:36;32.20;74.00
12811;DHT22;6470;47.654;7.896;2022-08-11T12:39:06;32.70;73.10
12811;DHT22;6470;47.654;7.896;2022-08-11T12:41:34;33.00;72.40
12811;DHT22;6470;47.654;7.896;2022-08-11T12:44:20;32.60;70.90
12811;DHT22;6470;47.654;7.896;2022-08-11T12:47:07;32.70;71.70
12811;DHT22;6470;47.654;7.896;2022-08-11T12:49:36;32.70;73.00
12811;DHT22;6470;47.654;7.896;2022-08-11T12:52:25;32.80;72.30
12811;DHT22;6470;47.654;7.896;2022-08-11T12:55:15;33.00;72.10
12811;DHT22;6470;47.654;7.896;2022-08-11T12:58:06;34.10;71.60
12811;DHT22;6470;47.654;7.896;2022-08-11T13:00:44;33.20;70.70
12811;DHT22;6470;47.654;7.896;2022-08-11T13:03:31;32.70;70.10
12811;DHT22;6470;47.654;7.896;2022-08-11T13:06:17;32.90;71.00
12811;DHT22;6470;47.654;7.896;2022-08-11T13:08:44;32.70;71.60
12811;DHT22;6470;47.654;7.896;2022-08-11T13:11:15;33.50;70.90
12811;DHT22;6470;47.654;7.896;2022-08-11T13:13:59;33.40;71.20
12811;DHT22;6470;47.654;7.896;2022-08-11T13:16:31;33.80;71.30
12811;DHT22;6470;47.654;7.896;2022-08-11T13:19:19;33.40;71.20
12811;DHT22;6470;47.654;7.896;2022-08-11T13:21:48;33.10;71.50
12811;DHT22;6470;47.654;7.896;2022-08-11T13:24:14;33.30;71.20
12811;DHT22;6470;47.654;7.896;2022-08-11T13:26:42;33.80;69.80
12811;DHT22;6470;47.654;7.896;2022-08-11T13:29:09;30.30;66.90
12811;DHT22;6470;47.654;7.896;2022-08-11T13:31:36;32.90;70.00
12811;DHT22;6470;47.654;7.896;2022-08-11T13:34:02;33.00;70.20
12811;DHT22;6470;47.654;7.896;2022-08-11T13:36:30;32.90;70.80
12811;DHT22;6470;47.654;7.896;2022-08-11T13:38:56;33.00;71.20
12811;DHT22;6470;47.654;7.896;2022-08-11T13:41:26;33.10;70.70
12811;DHT22;6470;47.654;7.896;2022-08-11T13:44:07;33.20;71.10
12811;DHT22;6470;47.654;7.896;2022-08-11T13:46:34;33.00;70.40
12811;DHT22;6470;47.654;7.896;2022-08-11T13:49:01;32.50;69.70
12811;DHT22;6470;47.654;7.896;2022-08-11T13:51:27;33.20;70.80
12811;DHT22;6470;47.654;7.896;2022-08-11T13:53:59;34.00;69.60
12811;DHT22;6470;47.654;7.896;2022-08-11T13:56:26;32.90;69.10
12811;DHT22;6470;47.654;7.896;2022-08-11T13:58:53;30.70;68.00
12811;DHT22;6470;47.654;7.896;2022-08-11T14:01:22;33.30;70.90
12811;DHT22;6470;47.654;7.896;2022-08-11T14:03:49;33.10;70.70
12811;DHT22;6470;47.654;7.896;2022-08-11T14:06:17;32.20;70.60
12811;DHT22;6470;47.654;7.896;2022-08-11T14:08:44;30.10;69.00
12811;DHT22;6470;47.654;7.896;2022-08-11T14:11:10;32.30;70.30
12811;DHT22;6470;47.654;7.896;2022-08-11T14:13:56;32.00;71.70
12811;DHT22;6470;47.654;7.896;2022-08-11T14:16:30;32.00;72.10
12811;DHT22;6470;47.654;7.896;2022-08-11T14:19:04;32.40;70.40
12811;DHT22;6470;47.654;7.896;2022-08-11T14:21:36;32.40;70.90
12811;DHT22;6470;47.654;7.896;2022-08-11T14:24:21;33.00;71.60
12811;DHT22;6470;47.654;7.896;2022-08-11T14:26:49;32.90;71.40
12811;DHT22;6470;47.654;7.896;2022-08-11T14:29:20;33.50;71.70
12811;DHT22;6470;47.654;7.896;2022-08-11T14:31:54;33.20;71.40
12811;DHT22;6470;47.654;7.896;2022-08-11T14:34:25;32.60;70.50
12811;DHT22;6470;47.654;7.896;2022-08-11T14:36:58;30.00;68.90
12811;DHT22;6470;47.654;7.896;2022-08-11T14:39:26;32.90;71.60
12811;DHT22;6470;47.654;7.896;2022-08-11T14:41:58;32.70;71.30
12811;DHT22;6470;47.654;7.896;2022-08-11T14:44:49;32.40;71.10
12811;DHT22;6470;47.654;7.896;2022-08-11T14:47:30;32.30;70.80
12811;DHT22;6470;47.654;7.896;2022-08-11T14:49:58;32.90;72.50
12811;DHT22;6470;47.654;7.896;2022-08-11T14:52:27;32.20;72.40
12811;DHT22;6470;47.654;7.896;2022-08-11T14:54:53;32.50;71.00
12811;DHT22;6470;47.654;7.896;2022-08-11T14:57:39;32.90;71.90
12811;DHT22;6470;47.654;7.896;2022-08-11T15:00:08;31.90;71.60
12811;DHT22;6470;47.654;7.896;2022-08-11T15:02:38;31.90;70.40
12811;DHT22;6470;47.654;7.896;2022-08-11T15:05:23;32.20;71.60
12811;DHT22;6470;47.654;7.896;2022-08-11T15:07:51;31.60;71.00
12811;DHT22;6470;47.654;7.896;2022-08-11T15:10:18;31.40;70.60
12811;DHT22;6470;47.654;7.896;2022-08-11T15:12:45;30.10;69.90
12811;DHT22;6470;47.654;7.896;2022-08-11T15:15:12;32.50;72.10
12811;DHT22;6470;47.654;7.896;2022-08-11T15:18:00;32.10;72.30
12811;DHT22;6470;47.654;7.896;2022-08-11T15:20:27;32.50;73.20
12811;DHT22;6470;47.654;7.896;2022-08-11T15:23:13;32.10;73.00
12811;DHT22;6470;47.654;7.896;2022-08-11T15:26:45;31.60;73.60
12811;DHT22;6470;47.654;7.896;2022-08-11T15:29:06;31.80;73.40
12811;DHT22;6470;47.654;7.896;2022-08-11T15:31:51;31.90;74.00
12811;DHT22;6470;47.654;7.896;2022-08-11T15:34:35;31.70;71.60
12811;DHT22;6470;47.654;7.896;2022-08-11T15:37:21;31.70;73.60
12811;DHT22;6470;47.654;7.896;2022-08-11T15:40:18;32.50;73.60
12811;DHT22;6470;47.654;7.896;2022-08-11T15:43:15;32.80;72.70
12811;DHT22;6470;47.654;7.896;2022-08-11T15:46:07;31.90;72.40
12811;DHT22;6470;47.654;7.896;2022-08-11T15:48:42;31.30;72.10
12811;DHT22;6470;47.654;7.896;2022-08-11T15:51:17;31.50;72.80
12811;DHT22;6470;47.654;7.896;2022-08-11T15:53:52;31.60;72.70
12811;DHT22;6470;47.654;7.896;2022-08-11T15:56:22;31.50;72.80
12811;DHT22;6470;47.654;7.896;2022-08-11T15:58:50;31.40;72.80
12811;DHT22;6470;47.654;7.896;2022-08-11T16:01:38;30.70;72.20
12811;DHT22;6470;47.654;7.896;2022-08-11T16:04:26;30.50;72.60
12811;DHT22;6470;47.654;7.896;2022-08-11T16:07:02;30.90;73.50
12811;DHT22;6470;47.654;7.896;2022-08-11T16:09:33;30.90;72.90
12811;DHT22;6470;47.654;7.896;2022-08-11T16:12:02;31.10;73.10
12811;DHT22;6470;47.654;7.896;2022-08-11T16:14:33;31.10;73.50
12811;DHT22;6470;47.654;7.896;2022-08-11T16:17:20;31.00;73.20
12811;DHT22;6470;47.654;7.896;2022-08-11T16:19:50;31.30;73.30
12811;DHT22;6470;47.654;7.896;2022-08-11T16:22:21;30.60;73.30
12811;DHT22;6470;47.654;7.896;2022-08-11T16:24:56;31.60;75.10
12811;DHT22;6470;47.654;7.896;2022-08-11T16:27:22;30.60;73.60
12811;DHT22;6470;47.654;7.896;2022-08-11T16:29:49;31.10;72.90
12811;DHT22;6470;47.654;7.896;2022-08-11T16:32:18;30.40;73.20
12811;DHT22;6470;47.654;7.896;2022-08-11T16:35:00;30.30;73.40
12811;DHT22;6470;47.654;7.896;2022-08-11T16:37:46;28.80;72.80
12811;DHT22;6470;47.654;7.896;2022-08-11T16:40:31;30.70;73.90
12811;DHT22;6470;47.654;7.896;2022-08-11T16:42:58;30.40;74.10
12811;DHT22;6470;47.654;7.896;2022-08-11T16:45:45;29.10;72.00
12811;DHT22;6470;47.654;7.896;2022-08-11T16:48:32;31.10;73.70
12811;DHT22;6470;47.654;7.896;2022-08-11T16:50:58;31.10;73.90
12811;DHT22;6470;47.654;7.896;2022-08-11T16:53:27;30.10;73.40
12811;DHT22;6470;47.654;7.896;2022-08-11T16:55:55;31.00;74.70
12811;DHT22;6470;47.654;7.896;2022-08-11T16:58:23;30.10;74.50
12811;DHT22;6470;47.654;7.896;2022-08-11T17:01:08;29.20;74.10
12811;DHT22;6470;47.654;7.896;2022-08-11T17:03:41;29.30;73.90
12811;DHT22;6470;47.654;7.896;2022-08-11T17:06:26;29.50;74.40
12811;DHT22;6470;47.654;7.896;2022-08-11T17:09:15;29.70;74.90
12811;DHT22;6470;47.654;7.896;2022-08-11T17:12:21;29.70;75.20
12811;DHT22;6470;47.654;7.896;2022-08-11T17:15:08;29.50;74.50
12811;DHT22;6470;47.654;7.896;2022-08-11T17:17:56;29.50;74.90
12811;DHT22;6470;47.654;7.896;2022-08-11T17:20:23;29.60;75.10
12811;DHT22;6470;47.654;7.896;2022-08-11T17:22:51;30.00;75.90
12811;DHT22;6470;47.654;7.896;2022-08-11T17:25:35;26.60;73.20
12811;DHT22;6470;47.654;7.896;2022-08-11T17:28:02;29.20;75.70
12811;DHT22;6470;47.654;7.896;2022-08-11T17:30:29;29.20;76.20
12811;DHT22;6470;47.654;7.896;2022-08-11T17:33:15;29.10;76.40
12811;DHT22;6470;47.654;7.896;2022-08-11T17:36:00;26.50;73.50
12811;DHT22;6470;47.654;7.896;2022-08-11T17:38:27;29.60;75.90
12811;DHT22;6470;47.654;7.896;2022-08-11T17:40:58;29.90;76.70
12811;DHT22;6470;47.654;7.896;2022-08-11T17:43:44;29.30;76.60
12811;DHT22;6470;47.654;7.896;2022-08-11T17:46:30;28.80;76.50
12811;DHT22;6470;47.654;7.896;2022-08-11T17:49:15;29.30;77.80
12811;DHT22;6470;47.654;7.896;2022-08-11T17:51:46;29.20;78.40
12811;DHT22;6470;47.654;7.896;2022-08-11T17:54:33;28.50;78.00
12811;DHT22;6470;47.654;7.896;2022-08-11T17:57:20;28.40;78.80
12811;DHT22;6470;47.654;7.896;2022-08-11T18:00:05;28.20;78.90
12811;DHT22;6470;47.654;7.896;2022-08-11T18:02:36;28.20;79.50
12811;DHT22;6470;47.654;7.896;2022-08-11T18:05:37;28.00;78.80
12811;DHT22;6470;47.654;7.896;2022-08-11T18:08:07;27.70;79.00
12811;DHT22;6470;47.654;7.896;2022-08-11T18:10:53;27.90;79.20
12811;DHT22;6470;47.654;7.896;2022-08-11T18:13:40;27.30;78.60
12811;DHT22;6470;47.654;7.896;2022-08-11T18:16:25;28.00;79.20
12811;DHT22;6470;47.654;7.896;2022-08-11T18:19:09;27.40;79.40
12811;DHT22;6470;47.654;7.896;2022-08-11T18:22:00;27.40;80.40
12811;DHT22;6470;47.654;7.896;2022-08-11T18:24:52;27.90;81.10
12811;DHT22;6470;47.654;7.896;2022-08-11T18:27:41;27.00;80.90
12811;DHT22;6470;47.654;7.896;2022-08-11T18:30:26;27.40;80.80
12811;DHT22;6470;47.654;7.896;2022-08-11T18:33:12;27.90;81.60
12811;DHT22;6470;47.654;7.896;2022-08-11T18:35:58;27.70;82.00
12811;DHT22;6470;47.654;7.896;2022-08-11T18:38:45;27.20;81.60
12811;DHT22;6470;47.654;7.896;2022-08-11T18:41:35;27.00;81.10
12811;DHT22;6470;47.654;7.896;2022-08-11T18:44:22;27.10;81.80
12811;DHT22;6470;47.654;7.896;2022-08-11T18:47:10;26.90;81.70
12811;DHT22;6470;47.654;7.896;2022-08-11T18:49:56;25.70;82.10
12811;DHT22;6470;47.654;7.896;2022-08-11T18:52:43;26.70;82.70
12811;DHT22;6470;47.654;7.896;2022-08-11T18:55:29;26.80;82.50
12811;DHT22;6470;47.654;7.896;2022-08-11T18:58:17;25.40;82.30
12811;DHT22;6470;47.654;7.896;2022-08-11T19:01:05;23.40;84.20
12811;DHT22;6470;47.654;7.896;2022-08-11T19:03:52;23.50;82.80
12811;DHT22;6470;47.654;7.896;2022-08-11T19:06:40;25.40;82.00
12811;DHT22;6470;47.654;7.896;2022-08-11T19:09:25;25.50;84.70
12811;DHT22;6470;47.654;7.896;2022-08-11T19:12:12;25.10;84.00
12811;DHT22;6470;47.654;7.896;2022-08-11T19:14:57;24.80;88.10
12811;DHT22;6470;47.654;7.896;2022-08-11T19:17:44;25.40;88.70
12811;DHT22;6470;47.654;7.896;2022-08-11T19:20:29;25.20;88.70
12811;DHT22;6470;47.654;7.896;2022-08-11T19:23:18;25.00;90.40
12811;DHT22;6470;47.654;7.896;2022-08-11T19:26:05;23.90;90.70
12811;DHT22;6470;47.654;7.896;2022-08-11T19:28:51;24.50;91.00
12811;DHT22;6470;47.654;7.896;2022-08-11T19:31:36;24.30;90.30
12811;DHT22;6470;47.654;7.896;2022-08-11T19:34:22;24.40;89.70
12811;DHT22;6470;47.654;7.896;2022-08-11T19:37:08;24.60;90.80
12811;DHT22;6470;47.654;7.896;2022-08-11T19:40:05;24.30;90.70
12811;DHT22;6470;47.654;7.896;2022-08-11T19:42:50;24.00;87.70
12811;DHT22;6470;47.654;7.896;2022-08-11T19:45:35;24.40;86.20
12811;DHT22;6470;47.654;7.896;2022-08-11T19:48:21;24.70;86.20
12811;DHT22;6470;47.654;7.896;2022-08-11T19:51:08;24.00;86.40
12811;DHT22;6470;47.654;7.896;2022-08-11T19:53:54;23.80;87.30
12811;DHT22;6470;47.654;7.896;2022-08-11T19:56:39;24.30;87.40
12811;DHT22;6470;47.654;7.896;2022-08-11T19:59:24;24.30;88.10
12811;DHT22;6470;47.654;7.896;2022-08-11T20:02:09;24.30;89.60
12811;DHT22;6470;47.654;7.896;2022-08-11T20:04:53;21.00;87.60
12811;DHT22;6470;47.654;7.896;2022-08-11T20:07:38;24.70;88.20
12811;DHT22;6470;47.654;7.896;2022-08-11T20:10:24;24.30;88.60
12811;DHT22;6470;47.654;7.896;2022-08-11T20:13:11;24.20;87.90
12811;DHT22;6470;47.654;7.896;2022-08-11T20:15:58;21.50;85.80
12811;DHT22;6470;47.654;7.896;2022-08-11T20:18:43;23.80;86.50
12811;DHT22;6470;47.654;7.896;2022-08-11T20:21:29;24.40;86.80
12811;DHT22;6470;47.654;7.896;2022-08-11T20:24:14;24.40;87.60
12811;DHT22;6470;47.654;7.896;2022-08-11T20:27:00;24.30;87.40